City Of Long Beach — WDC5007 — position and weather

sailwx.info

Track history (hours):
 
Tides and Currents Weather Stations Pressure Air Temp Water Temp Dewpoint Dewpoint Depression Visibility Wind Speed Wind Dir Waves Ship Positions

City Of Long Beach

Owner: Long Beach Anglers, Inc., Long Beach, CA. More information available from US FCC via Universal Licensing System and Coast Guard Vessel Documentation Center.

Last reported at 2017-Sep-19 14:43 UTC. Time now 2017-Sep-19 16:52 UTC.
Position N 33°37' W 118°09'.

Type: Ship. MMSI: 367034320.

Date/timePositionNaut miles runAvg speedWind from/ knotsBaromVisibWave heightAir tempDewpointWater temp
2017-Sep-19 14:43N 33°37' W 118°09'6 8.8
2017-Sep-19 14:01N 33°43' W 118°11'0 9.1
2017-Sep-19 13:59N 33°43' W 118°11'3 5.4
2017-Sep-19 13:29N 33°46' W 118°12'0 0.0
2017-Sep-19 01:22N 33°46' W 118°12'1 1.1
2017-Sep-19 00:50N 33°45' W 118°11'3 8.4
2017-Sep-19 00:26N 33°42' W 118°11'4 8.5
2017-Sep-18 23:57N 33°38' W 118°10'3 5.9
2017-Sep-18 23:30N 33°35' W 118°10'1 1.0
2017-Sep-18 22:59N 33°35' W 118°09'2 0.9
2017-Sep-18 21:01N 33°34' W 118°08'2 5.9
2017-Sep-18 20:38N 33°36' W 118°09'1 9.2
2017-Sep-18 20:30N 33°37' W 118°09'5 9.1
2017-Sep-18 19:59N 33°42' W 118°11'4 8.0
2017-Sep-18 19:30N 33°46' W 118°12'0 0.1
2017-Sep-18 19:00N 33°46' W 118°12'4 7.3
2017-Sep-18 18:29N 33°42' W 118°11'4 8.7
2017-Sep-18 18:00N 33°38' W 118°10'2 4.9
2017-Sep-18 17:29N 33°35' W 118°10'0 0.7
2017-Sep-18 16:51N 33°35' W 118°09'2 1.9
2017-Sep-18 15:58N 33°34' W 118°08'0 0.1
2017-Sep-18 15:01N 33°34' W 118°08'0 7.4
2017-Sep-18 14:59N 33°34' W 118°08'4 8.8
2017-Sep-18 14:30N 33°38' W 118°09'5 8.7
2017-Sep-18 13:58N 33°43' W 118°11'3 6.1
2017-Sep-18 13:30N 33°46' W 118°12'0 0.0
2017-Sep-18 01:28N 33°46' W 118°12'1 1.8
2017-Sep-18 01:00N 33°45' W 118°11'5 8.7
2017-Sep-18 00:29N 33°41' W 118°10'5 8.1
2017-Sep-17 23:52N 33°36' W 118°10'0 0.8
2017-Sep-17 23:22N 33°35' W 118°10'1 0.5
2017-Sep-17 22:21N 33°35' W 118°09'0 1.1
2017-Sep-17 21:53N 33°36' W 118°09'1 0.9
2017-Sep-17 20:46N 33°37' W 118°10'2 9.3
2017-Sep-17 20:31N 33°39' W 118°10'5 9.0
2017-Sep-17 20:01N 33°43' W 118°11'2 4.5
2017-Sep-17 19:29N 33°46' W 118°12'2 3.0
2017-Sep-17 18:59N 33°44' W 118°11'5 1.2
2017-Sep-17 14:54N 33°40' W 118°08'4 8.6
2017-Sep-17 14:28N 33°43' W 118°08'2 3.1
2017-Sep-17 13:59N 33°44' W 118°10'2 4.4
2017-Sep-17 13:29N 33°46' W 118°12'0 0.0
2017-Sep-17 01:22N 33°46' W 118°12'1 2.4
2017-Sep-17 01:00N 33°45' W 118°11'4 8.6
2017-Sep-17 00:30N 33°41' W 118°10'6 3.4
2017-Sep-16 22:49N 33°35' W 118°10'1 0.5
2017-Sep-16 20:46N 33°36' W 118°09'2 9.1
2017-Sep-16 20:30N 33°38' W 118°10'5 8.9
2017-Sep-16 20:00N 33°43' W 118°11'3 6.4
2017-Sep-16 19:30N 33°46' W 118°12'1 2.4
2017-Sep-16 18:58N 33°45' W 118°11'4 8.8
2017-Sep-16 18:30N 33°41' W 118°10'4 8.8
2017-Sep-16 18:00N 33°36' W 118°10'1 1.1
2017-Sep-16 17:03N 33°35' W 118°10'4 1.5
2017-Sep-16 14:15N 33°39' W 118°10'5 8.8
2017-Sep-16 13:42N 33°44' W 118°11'2 5.1
2017-Sep-16 13:23N 33°46' W 118°12'0 0.0
2017-Sep-16 01:04N 33°46' W 118°12'0 4.9
2017-Sep-16 01:00N 33°45' W 118°12'4 8.1
2017-Sep-16 00:30N 33°41' W 118°11'5 9.2
2017-Sep-15 23:59N 33°38' W 118°15'1 1.5
2017-Sep-15 23:17N 33°37' W 118°16'0 0.6
2017-Sep-15 22:49N 33°37' W 118°16'1 1.0
2017-Sep-15 21:37N 33°36' W 118°16'2 3.3
2017-Sep-15 21:09N 33°37' W 118°15'1 8.5
2017-Sep-15 20:59N 33°38' W 118°14'2 4.1
2017-Sep-15 20:28N 33°38' W 118°12'3 7.4
2017-Sep-15 20:00N 33°42' W 118°11'4 8.0
2017-Sep-15 19:30N 33°46' W 118°12'1 2.3
2017-Sep-15 18:58N 33°45' W 118°11'4 9.0
2017-Sep-15 18:30N 33°40' W 118°10'4 8.9
2017-Sep-15 18:00N 33°36' W 118°09'2 1.0
2017-Sep-15 15:42N 33°36' W 118°06'0 1.6
2017-Sep-15 15:27N 33°37' W 118°06'2 3.8
2017-Sep-15 14:50N 33°39' W 118°08'4 8.9
2017-Sep-15 14:26N 33°42' W 118°08'1 3.1
2017-Sep-15 14:00N 33°43' W 118°09'3 6.8
2017-Sep-15 13:30N 33°46' W 118°12'0 0.0
2017-Sep-15 00:47N 33°46' W 118°12'2 6.5
2017-Sep-15 00:30N 33°44' W 118°11'5 9.3
2017-Sep-15 00:00N 33°42' W 118°16'3 4.0
2017-Sep-14 23:15N 33°43' W 118°20'0 0.0
2017-Sep-14 23:00N 33°43' W 118°20'0 0.0
2017-Sep-14 22:29N 33°43' W 118°20'0 0.0
2017-Sep-14 21:55N 33°43' W 118°20'0 0.0
2017-Sep-14 21:29N 33°43' W 118°20'1 1.1
2017-Sep-14 21:00N 33°43' W 118°19'1 1.9
2017-Sep-14 20:29N 33°42' W 118°18'4 7.9
2017-Sep-14 20:00N 33°43' W 118°13'3 6.4
2017-Sep-14 19:30N 33°46' W 118°12'0 0.5
2017-Sep-14 18:59N 33°46' W 118°12'4 7.3
2017-Sep-14 18:30N 33°42' W 118°11'3 5.8
2017-Sep-14 18:00N 33°39' W 118°12'3 5.2
2017-Sep-14 17:30N 33°40' W 118°15'1 2.4
2017-Sep-14 16:59N 33°40' W 118°16'1 1.1
2017-Sep-14 16:15N 33°39' W 118°16'2 8.0
2017-Sep-14 16:00N 33°39' W 118°13'3 5.4
2017-Sep-14 15:30N 33°36' W 118°11'2 3.5
2017-Sep-14 14:58N 33°38' W 118°12'6 5.7
2017-Sep-14 13:50N 33°44' W 118°10'2 5.4
2017-Sep-14 13:29N 33°46' W 118°12'0 0.0
2017-Sep-14 00:49N 33°46' W 118°12'2 6.5
2017-Sep-14 00:27N 33°43' W 118°11'4 8.6
2017-Sep-14 00:00N 33°40' W 118°12'2 3.7
2017-Sep-13 23:28N 33°38' W 118°13'0 0.2
2017-Sep-13 23:00N 33°38' W 118°13'1 2.2
2017-Sep-13 22:30N 33°39' W 118°14'1 2.3
2017-Sep-13 22:00N 33°39' W 118°13'0 0.9
2017-Sep-13 21:30N 33°39' W 118°13'1 1.2
2017-Sep-13 21:00N 33°39' W 118°14'0 0.5
2017-Sep-13 20:28N 33°39' W 118°14'3 7.1
2017-Sep-13 20:00N 33°42' W 118°12'4 7.8
2017-Sep-13 19:30N 33°46' W 118°12'0 0.2
2017-Sep-13 19:00N 33°46' W 118°12'4 7.0
2017-Sep-13 18:30N 33°42' W 118°11'4 8.1
2017-Sep-13 18:00N 33°38' W 118°13'1 1.5
2017-Sep-13 17:30N 33°39' W 118°13'0 0.0
2017-Sep-13 17:00N 33°39' W 118°13'0 0.3
2017-Sep-13 16:30N 33°39' W 118°13'0 0.3
2017-Sep-13 16:00N 33°39' W 118°13'0 0.1
2017-Sep-13 15:30N 33°39' W 118°13'1 1.3
2017-Sep-13 15:00N 33°38' W 118°13'3 5.1
2017-Sep-13 14:30N 33°41' W 118°12'3 6.5
2017-Sep-13 14:00N 33°44' W 118°11'2 3.6
2017-Sep-13 13:29N 33°46' W 118°12'0 0.0
2017-Sep-13 01:03N 33°46' W 118°12'0 0.1
2017-Sep-13 01:00N 33°46' W 118°12'2 4.3
2017-Sep-13 00:30N 33°44' W 118°11'4 8.9
2017-Sep-13 00:00N 33°42' W 118°16'3 6.1
2017-Sep-12 23:30N 33°43' W 118°20'0 0.8
2017-Sep-12 23:00N 33°43' W 118°20'0 0.1
2017-Sep-12 22:30N 33°43' W 118°20'0 0.7
2017-Sep-12 22:00N 33°43' W 118°20'1 1.9
2017-Sep-12 21:30N 33°42' W 118°18'0 0.0
2017-Sep-12 21:00N 33°42' W 118°18'1 1.3
2017-Sep-12 20:30N 33°42' W 118°18'4 7.5
2017-Sep-12 20:00N 33°43' W 118°13'3 6.5
2017-Sep-12 19:30N 33°45' W 118°11'0 0.8
2017-Sep-12 19:00N 33°46' W 118°12'4 7.2
2017-Sep-12 18:30N 33°42' W 118°11'3 6.3
2017-Sep-12 18:00N 33°40' W 118°13'1 1.2
2017-Sep-12 17:30N 33°40' W 118°14'2 3.7
2017-Sep-12 17:00N 33°38' W 118°13'0 0.3
2017-Sep-12 16:29N 33°38' W 118°13'0 0.0
2017-Sep-12 16:00N 33°38' W 118°13'1 2.9
2017-Sep-12 15:30N 33°38' W 118°11'3 6.0
2017-Sep-12 15:00N 33°39' W 118°08'4 8.0
2017-Sep-12 14:30N 33°43' W 118°08'1 1.7
2017-Sep-12 14:00N 33°44' W 118°09'3 6.0
2017-Sep-12 13:30N 33°46' W 118°12'0 0.0
2017-Sep-11 22:02N 33°46' W 118°12'0 0.0
2017-Sep-11 22:01N 33°46' W 118°12'2 4.1
2017-Sep-11 21:31N 33°44' W 118°11'4 8.0
2017-Sep-11 21:00N 33°44' W 118°16'1 1.2
2017-Sep-11 20:30N 33°44' W 118°16'0 0.3
2017-Sep-11 20:00N 33°44' W 118°16'3 5.3
2017-Sep-11 19:31N 33°43' W 118°13'3 5.2
2017-Sep-11 19:01N 33°46' W 118°12'3 6.9
2017-Sep-11 18:31N 33°42' W 118°11'4 8.0
2017-Sep-11 18:01N 33°38' W 118°10'2 2.9
2017-Sep-11 17:30N 33°38' W 118°12'1 3.0
2017-Sep-11 17:01N 33°40' W 118°11'4 7.3
2017-Sep-11 16:30N 33°39' W 118°07'2 3.6
2017-Sep-11 16:00N 33°39' W 118°05'1 2.9
2017-Sep-11 15:30N 33°39' W 118°03'1 1.8
2017-Sep-11 15:00N 33°39' W 118°04'4 7.6
2017-Sep-11 14:30N 33°40' W 118°08'3 6.2
2017-Sep-11 13:59N 33°44' W 118°08'3 6.8
2017-Sep-11 13:28N 33°46' W 118°12'0 0.0
2017-Sep-11 00:01N 33°46' W 118°12'0 0.0
2017-Sep-11 00:00N 33°46' W 118°12'0 0.0
2017-Sep-10 23:30N 33°46' W 118°12'0 0.0
2017-Sep-10 23:00N 33°46' W 118°12'3 6.2
2017-Sep-10 22:30N 33°43' W 118°11'4 8.5
2017-Sep-10 22:00N 33°39' W 118°10'4 8.0
2017-Sep-10 21:30N 33°35' W 118°09'0 0.5
2017-Sep-10 21:00N 33°34' W 118°09'0 0.0
2017-Sep-10 20:30N 33°34' W 118°09'1 1.2
2017-Sep-10 20:00N 33°35' W 118°09'0 0.7
2017-Sep-10 19:30N 33°34' W 118°08'0 0.2
2017-Sep-10 19:00N 33°34' W 118°08'0 0.5
2017-Sep-10 18:30N 33°34' W 118°09'1 1.8
2017-Sep-10 18:00N 33°34' W 118°08'1 2.9
2017-Sep-10 17:30N 33°35' W 118°07'2 3.1
2017-Sep-10 17:00N 33°37' W 118°06'0 0.0
2017-Sep-10 16:30N 33°37' W 118°06'0 0.0
2017-Sep-10 16:00N 33°37' W 118°06'0 0.0
2017-Sep-10 15:29N 33°37' W 118°06'0 0.1
2017-Sep-10 15:00N 33°37' W 118°06'6 6.5
2017-Sep-10 14:00N 33°43' W 118°08'2 3.6
2017-Sep-10 13:30N 33°44' W 118°10'2 4.3
2017-Sep-10 13:00N 33°46' W 118°12'0 0.0
2017-Sep-10 12:30N 33°46' W 118°12'0 0.0
2017-Sep-10 12:00N 33°46' W 118°12'0 0.0
2017-Sep-10 11:30N 33°46' W 118°12'0 0.0
2017-Sep-10 11:00N 33°46' W 118°12'0 0.0
2017-Sep-10 10:30N 33°46' W 118°12'0 0.0
2017-Sep-10 10:00N 33°46' W 118°12'0 0.0
2017-Sep-10 09:30N 33°46' W 118°12'0 0.0
2017-Sep-10 09:00N 33°46' W 118°12'0 0.0
2017-Sep-10 08:30N 33°46' W 118°12'0 0.0
2017-Sep-10 08:00N 33°46' W 118°12'0 0.0
2017-Sep-10 07:30N 33°46' W 118°12'0 0.0
2017-Sep-10 07:00N 33°46' W 118°12'0 0.0
2017-Sep-10 06:30N 33°46' W 118°12'0 0.0
2017-Sep-10 06:00N 33°46' W 118°12'0 0.0
2017-Sep-10 05:30N 33°46' W 118°12'0 0.0
2017-Sep-10 05:00N 33°46' W 118°12'0 0.0
2017-Sep-10 04:30N 33°46' W 118°12'0 0.0
2017-Sep-10 04:00N 33°46' W 118°12'0 0.0
2017-Sep-10 03:30N 33°46' W 118°12'0 0.0
2017-Sep-10 03:01N 33°46' W 118°12'0 0.0
2017-Sep-10 02:30N 33°46' W 118°12'0 0.0
2017-Sep-10 02:00N 33°46' W 118°12'0 0.0
2017-Sep-10 01:30N 33°46' W 118°12'0 0.8
2017-Sep-10 01:00N 33°45' W 118°11'4 8.7
2017-Sep-10 00:30N 33°41' W 118°10'4 8.4
2017-Sep-10 00:00N 33°37' W 118°09'3 5.3
2017-Sep-09 23:30N 33°34' W 118°09'0 0.0
2017-Sep-09 23:00N 33°34' W 118°09'0 0.0
2017-Sep-09 22:30N 33°34' W 118°09'1 1.3
2017-Sep-09 22:00N 33°34' W 118°08'0 0.0
2017-Sep-09 21:30N 33°34' W 118°08'2 3.8
2017-Sep-09 21:00N 33°36' W 118°07'3 5.6
2017-Sep-09 20:30N 33°39' W 118°08'5 9.5
2017-Sep-09 20:00N 33°43' W 118°11'3 6.2
2017-Sep-09 19:30N 33°46' W 118°12'0 0.0
2017-Sep-09 19:00N 33°46' W 118°12'3 6.4
2017-Sep-09 18:30N 33°42' W 118°12'2 4.8
2017-Sep-09 18:00N 33°40' W 118°13'0 1.0
2017-Sep-09 17:30N 33°41' W 118°13'1 1.8
2017-Sep-09 17:01N 33°40' W 118°14'1 1.3
2017-Sep-09 16:30N 33°39' W 118°13'2 4.1
2017-Sep-09 16:00N 33°39' W 118°11'4 7.2
2017-Sep-09 15:31N 33°39' W 118°06'1 1.2
2017-Sep-09 15:00N 33°39' W 118°07'  
Track history (hours):
 
Tides and Currents Weather Stations Pressure Air Temp Water Temp Dewpoint Dewpoint Depression Visibility Wind Speed Wind Dir Waves Ship Positions

City Of Long Beach

Owner: Long Beach Anglers, Inc., Long Beach, CA. More information available from US FCC via Universal Licensing System and Coast Guard Vessel Documentation Center.

Last reported at 2017-Sep-19 14:43 UTC. Time now 2017-Sep-19 16:52 UTC.
Position N 33°37' W 118°09'.

Type: Ship. MMSI: 367034320.

Date/timePositionNaut miles runAvg speedWind from/ knotsBaromVisibWave heightAir tempDewpointWater temp
2017-Sep-19 14:43N 33°37' W 118°09'6 8.8
2017-Sep-19 14:01N 33°43' W 118°11'0 9.1
2017-Sep-19 13:59N 33°43' W 118°11'3 5.4
2017-Sep-19 13:29N 33°46' W 118°12'0 0.0
2017-Sep-19 01:22N 33°46' W 118°12'1 1.1
2017-Sep-19 00:50N 33°45' W 118°11'3 8.4
2017-Sep-19 00:26N 33°42' W 118°11'4 8.5
2017-Sep-18 23:57N 33°38' W 118°10'3 5.9
2017-Sep-18 23:30N 33°35' W 118°10'1 1.0
2017-Sep-18 22:59N 33°35' W 118°09'2 0.9
2017-Sep-18 21:01N 33°34' W 118°08'2 5.9
2017-Sep-18 20:38N 33°36' W 118°09'1 9.2
2017-Sep-18 20:30N 33°37' W 118°09'5 9.1
2017-Sep-18 19:59N 33°42' W 118°11'4 8.0
2017-Sep-18 19:30N 33°46' W 118°12'0 0.1
2017-Sep-18 19:00N 33°46' W 118°12'4 7.3
2017-Sep-18 18:29N 33°42' W 118°11'4 8.7
2017-Sep-18 18:00N 33°38' W 118°10'2 4.9
2017-Sep-18 17:29N 33°35' W 118°10'0 0.7
2017-Sep-18 16:51N 33°35' W 118°09'2 1.9
2017-Sep-18 15:58N 33°34' W 118°08'0 0.1
2017-Sep-18 15:01N 33°34' W 118°08'0 7.4
2017-Sep-18 14:59N 33°34' W 118°08'4 8.8
2017-Sep-18 14:30N 33°38' W 118°09'5 8.7
2017-Sep-18 13:58N 33°43' W 118°11'3 6.1
2017-Sep-18 13:30N 33°46' W 118°12'0 0.0
2017-Sep-18 01:28N 33°46' W 118°12'1 1.8
2017-Sep-18 01:00N 33°45' W 118°11'5 8.7
2017-Sep-18 00:29N 33°41' W 118°10'5 8.1
2017-Sep-17 23:52N 33°36' W 118°10'0 0.8
2017-Sep-17 23:22N 33°35' W 118°10'1 0.5
2017-Sep-17 22:21N 33°35' W 118°09'0 1.1
2017-Sep-17 21:53N 33°36' W 118°09'1 0.9
2017-Sep-17 20:46N 33°37' W 118°10'2 9.3
2017-Sep-17 20:31N 33°39' W 118°10'5 9.0
2017-Sep-17 20:01N 33°43' W 118°11'2 4.5
2017-Sep-17 19:29N 33°46' W 118°12'2 3.0
2017-Sep-17 18:59N 33°44' W 118°11'5 1.2
2017-Sep-17 14:54N 33°40' W 118°08'4 8.6
2017-Sep-17 14:28N 33°43' W 118°08'2 3.1
2017-Sep-17 13:59N 33°44' W 118°10'2 4.4
2017-Sep-17 13:29N 33°46' W 118°12'0 0.0
2017-Sep-17 01:22N 33°46' W 118°12'1 2.4
2017-Sep-17 01:00N 33°45' W 118°11'4 8.6
2017-Sep-17 00:30N 33°41' W 118°10'6 3.4
2017-Sep-16 22:49N 33°35' W 118°10'1 0.5
2017-Sep-16 20:46N 33°36' W 118°09'2 9.1
2017-Sep-16 20:30N 33°38' W 118°10'5 8.9
2017-Sep-16 20:00N 33°43' W 118°11'3 6.4
2017-Sep-16 19:30N 33°46' W 118°12'1 2.4
2017-Sep-16 18:58N 33°45' W 118°11'4 8.8
2017-Sep-16 18:30N 33°41' W 118°10'4 8.8
2017-Sep-16 18:00N 33°36' W 118°10'1 1.1
2017-Sep-16 17:03N 33°35' W 118°10'4 1.5
2017-Sep-16 14:15N 33°39' W 118°10'5 8.8
2017-Sep-16 13:42N 33°44' W 118°11'2 5.1
2017-Sep-16 13:23N 33°46' W 118°12'0 0.0
2017-Sep-16 01:04N 33°46' W 118°12'0 4.9
2017-Sep-16 01:00N 33°45' W 118°12'4 8.1
2017-Sep-16 00:30N 33°41' W 118°11'5 9.2
2017-Sep-15 23:59N 33°38' W 118°15'1 1.5
2017-Sep-15 23:17N 33°37' W 118°16'0 0.6
2017-Sep-15 22:49N 33°37' W 118°16'1 1.0
2017-Sep-15 21:37N 33°36' W 118°16'2 3.3
2017-Sep-15 21:09N 33°37' W 118°15'1 8.5
2017-Sep-15 20:59N 33°38' W 118°14'2 4.1
2017-Sep-15 20:28N 33°38' W 118°12'3 7.4
2017-Sep-15 20:00N 33°42' W 118°11'4 8.0
2017-Sep-15 19:30N 33°46' W 118°12'1 2.3
2017-Sep-15 18:58N 33°45' W 118°11'4 9.0
2017-Sep-15 18:30N 33°40' W 118°10'4 8.9
2017-Sep-15 18:00N 33°36' W 118°09'2 1.0
2017-Sep-15 15:42N 33°36' W 118°06'0 1.6
2017-Sep-15 15:27N 33°37' W 118°06'2 3.8
2017-Sep-15 14:50N 33°39' W 118°08'4 8.9
2017-Sep-15 14:26N 33°42' W 118°08'1 3.1
2017-Sep-15 14:00N 33°43' W 118°09'3 6.8
2017-Sep-15 13:30N 33°46' W 118°12'0 0.0
2017-Sep-15 00:47N 33°46' W 118°12'2 6.5
2017-Sep-15 00:30N 33°44' W 118°11'5 9.3
2017-Sep-15 00:00N 33°42' W 118°16'3 4.0
2017-Sep-14 23:15N 33°43' W 118°20'0 0.0
2017-Sep-14 23:00N 33°43' W 118°20'0 0.0
2017-Sep-14 22:29N 33°43' W 118°20'0 0.0
2017-Sep-14 21:55N 33°43' W 118°20'0 0.0
2017-Sep-14 21:29N 33°43' W 118°20'1 1.1
2017-Sep-14 21:00N 33°43' W 118°19'1 1.9
2017-Sep-14 20:29N 33°42' W 118°18'4 7.9
2017-Sep-14 20:00N 33°43' W 118°13'3 6.4
2017-Sep-14 19:30N 33°46' W 118°12'0 0.5
2017-Sep-14 18:59N 33°46' W 118°12'4 7.3
2017-Sep-14 18:30N 33°42' W 118°11'3 5.8
2017-Sep-14 18:00N 33°39' W 118°12'3 5.2
2017-Sep-14 17:30N 33°40' W 118°15'1 2.4
2017-Sep-14 16:59N 33°40' W 118°16'1 1.1
2017-Sep-14 16:15N 33°39' W 118°16'2 8.0
2017-Sep-14 16:00N 33°39' W 118°13'3 5.4
2017-Sep-14 15:30N 33°36' W 118°11'2 3.5
2017-Sep-14 14:58N 33°38' W 118°12'6 5.7
2017-Sep-14 13:50N 33°44' W 118°10'2 5.4
2017-Sep-14 13:29N 33°46' W 118°12'0 0.0
2017-Sep-14 00:49N 33°46' W 118°12'2 6.5
2017-Sep-14 00:27N 33°43' W 118°11'4 8.6
2017-Sep-14 00:00N 33°40' W 118°12'2 3.7
2017-Sep-13 23:28N 33°38' W 118°13'0 0.2
2017-Sep-13 23:00N 33°38' W 118°13'1 2.2
2017-Sep-13 22:30N 33°39' W 118°14'1 2.3
2017-Sep-13 22:00N 33°39' W 118°13'0 0.9
2017-Sep-13 21:30N 33°39' W 118°13'1 1.2
2017-Sep-13 21:00N 33°39' W 118°14'0 0.5
2017-Sep-13 20:28N 33°39' W 118°14'3 7.1
2017-Sep-13 20:00N 33°42' W 118°12'4 7.8
2017-Sep-13 19:30N 33°46' W 118°12'0 0.2
2017-Sep-13 19:00N 33°46' W 118°12'4 7.0
2017-Sep-13 18:30N 33°42' W 118°11'4 8.1
2017-Sep-13 18:00N 33°38' W 118°13'1 1.5
2017-Sep-13 17:30N 33°39' W 118°13'0 0.0
2017-Sep-13 17:00N 33°39' W 118°13'0 0.3
2017-Sep-13 16:30N 33°39' W 118°13'0 0.3
2017-Sep-13 16:00N 33°39' W 118°13'0 0.1
2017-Sep-13 15:30N 33°39' W 118°13'1 1.3
2017-Sep-13 15:00N 33°38' W 118°13'3 5.1
2017-Sep-13 14:30N 33°41' W 118°12'3 6.5
2017-Sep-13 14:00N 33°44' W 118°11'2 3.6
2017-Sep-13 13:29N 33°46' W 118°12'0 0.0
2017-Sep-13 01:03N 33°46' W 118°12'0 0.1
2017-Sep-13 01:00N 33°46' W 118°12'2 4.3
2017-Sep-13 00:30N 33°44' W 118°11'4 8.9
2017-Sep-13 00:00N 33°42' W 118°16'3 6.1
2017-Sep-12 23:30N 33°43' W 118°20'0 0.8
2017-Sep-12 23:00N 33°43' W 118°20'0 0.1
2017-Sep-12 22:30N 33°43' W 118°20'0 0.7
2017-Sep-12 22:00N 33°43' W 118°20'1 1.9
2017-Sep-12 21:30N 33°42' W 118°18'0 0.0
2017-Sep-12 21:00N 33°42' W 118°18'1 1.3
2017-Sep-12 20:30N 33°42' W 118°18'4 7.5
2017-Sep-12 20:00N 33°43' W 118°13'3 6.5
2017-Sep-12 19:30N 33°45' W 118°11'0 0.8
2017-Sep-12 19:00N 33°46' W 118°12'4 7.2
2017-Sep-12 18:30N 33°42' W 118°11'3 6.3
2017-Sep-12 18:00N 33°40' W 118°13'1 1.2
2017-Sep-12 17:30N 33°40' W 118°14'2 3.7
2017-Sep-12 17:00N 33°38' W 118°13'0 0.3
2017-Sep-12 16:29N 33°38' W 118°13'0 0.0
2017-Sep-12 16:00N 33°38' W 118°13'1 2.9
2017-Sep-12 15:30N 33°38' W 118°11'3 6.0
2017-Sep-12 15:00N 33°39' W 118°08'4 8.0
2017-Sep-12 14:30N 33°43' W 118°08'1 1.7
2017-Sep-12 14:00N 33°44' W 118°09'3 6.0
2017-Sep-12 13:30N 33°46' W 118°12'0 0.0
2017-Sep-11 22:02N 33°46' W 118°12'0 0.0
2017-Sep-11 22:01N 33°46' W 118°12'2 4.1
2017-Sep-11 21:31N 33°44' W 118°11'4 8.0
2017-Sep-11 21:00N 33°44' W 118°16'1 1.2
2017-Sep-11 20:30N 33°44' W 118°16'0 0.3
2017-Sep-11 20:00N 33°44' W 118°16'3 5.3
2017-Sep-11 19:31N 33°43' W 118°13'3 5.2
2017-Sep-11 19:01N 33°46' W 118°12'3 6.9
2017-Sep-11 18:31N 33°42' W 118°11'4 8.0
2017-Sep-11 18:01N 33°38' W 118°10'2 2.9
2017-Sep-11 17:30N 33°38' W 118°12'1 3.0
2017-Sep-11 17:01N 33°40' W 118°11'4 7.3
2017-Sep-11 16:30N 33°39' W 118°07'2 3.6
2017-Sep-11 16:00N 33°39' W 118°05'1 2.9
2017-Sep-11 15:30N 33°39' W 118°03'1 1.8
2017-Sep-11 15:00N 33°39' W 118°04'4 7.6
2017-Sep-11 14:30N 33°40' W 118°08'3 6.2
2017-Sep-11 13:59N 33°44' W 118°08'3 6.8
2017-Sep-11 13:28N 33°46' W 118°12'0 0.0
2017-Sep-11 00:01N 33°46' W 118°12'0 0.0
2017-Sep-11 00:00N 33°46' W 118°12'0 0.0
2017-Sep-10 23:30N 33°46' W 118°12'0 0.0
2017-Sep-10 23:00N 33°46' W 118°12'3 6.2
2017-Sep-10 22:30N 33°43' W 118°11'4 8.5
2017-Sep-10 22:00N 33°39' W 118°10'4 8.0
2017-Sep-10 21:30N 33°35' W 118°09'0 0.5
2017-Sep-10 21:00N 33°34' W 118°09'0 0.0
2017-Sep-10 20:30N 33°34' W 118°09'1 1.2
2017-Sep-10 20:00N 33°35' W 118°09'0 0.7
2017-Sep-10 19:30N 33°34' W 118°08'0 0.2
2017-Sep-10 19:00N 33°34' W 118°08'0 0.5
2017-Sep-10 18:30N 33°34' W 118°09'1 1.8
2017-Sep-10 18:00N 33°34' W 118°08'1 2.9
2017-Sep-10 17:30N 33°35' W 118°07'2 3.1
2017-Sep-10 17:00N 33°37' W 118°06'0 0.0
2017-Sep-10 16:30N 33°37' W 118°06'0 0.0
2017-Sep-10 16:00N 33°37' W 118°06'0 0.0
2017-Sep-10 15:29N 33°37' W 118°06'0 0.1
2017-Sep-10 15:00N 33°37' W 118°06'6 6.5
2017-Sep-10 14:00N 33°43' W 118°08'2 3.6
2017-Sep-10 13:30N 33°44' W 118°10'2 4.3
2017-Sep-10 13:00N 33°46' W 118°12'0 0.0
2017-Sep-10 12:30N 33°46' W 118°12'0 0.0
2017-Sep-10 12:00N 33°46' W 118°12'0 0.0
2017-Sep-10 11:30N 33°46' W 118°12'0 0.0
2017-Sep-10 11:00N 33°46' W 118°12'0 0.0
2017-Sep-10 10:30N 33°46' W 118°12'0 0.0
2017-Sep-10 10:00N 33°46' W 118°12'0 0.0
2017-Sep-10 09:30N 33°46' W 118°12'0 0.0
2017-Sep-10 09:00N 33°46' W 118°12'0 0.0
2017-Sep-10 08:30N 33°46' W 118°12'0 0.0
2017-Sep-10 08:00N 33°46' W 118°12'0 0.0
2017-Sep-10 07:30N 33°46' W 118°12'0 0.0
2017-Sep-10 07:00N 33°46' W 118°12'0 0.0
2017-Sep-10 06:30N 33°46' W 118°12'0 0.0
2017-Sep-10 06:00N 33°46' W 118°12'0 0.0
2017-Sep-10 05:30N 33°46' W 118°12'0 0.0
2017-Sep-10 05:00N 33°46' W 118°12'0 0.0
2017-Sep-10 04:30N 33°46' W 118°12'0 0.0
2017-Sep-10 04:00N 33°46' W 118°12'0 0.0
2017-Sep-10 03:30N 33°46' W 118°12'0 0.0
2017-Sep-10 03:01N 33°46' W 118°12'0 0.0
2017-Sep-10 02:30N 33°46' W 118°12'0 0.0
2017-Sep-10 02:00N 33°46' W 118°12'0 0.0
2017-Sep-10 01:30N 33°46' W 118°12'0 0.8
2017-Sep-10 01:00N 33°45' W 118°11'4 8.7
2017-Sep-10 00:30N 33°41' W 118°10'4 8.4
2017-Sep-10 00:00N 33°37' W 118°09'3 5.3
2017-Sep-09 23:30N 33°34' W 118°09'0 0.0
2017-Sep-09 23:00N 33°34' W 118°09'0 0.0
2017-Sep-09 22:30N 33°34' W 118°09'1 1.3
2017-Sep-09 22:00N 33°34' W 118°08'0 0.0
2017-Sep-09 21:30N 33°34' W 118°08'2 3.8
2017-Sep-09 21:00N 33°36' W 118°07'3 5.6
2017-Sep-09 20:30N 33°39' W 118°08'5 9.5
2017-Sep-09 20:00N 33°43' W 118°11'3 6.2
2017-Sep-09 19:30N 33°46' W 118°12'0 0.0
2017-Sep-09 19:00N 33°46' W 118°12'3 6.4
2017-Sep-09 18:30N 33°42' W 118°12'2 4.8
2017-Sep-09 18:00N 33°40' W 118°13'0 1.0
2017-Sep-09 17:30N 33°41' W 118°13'1 1.8
2017-Sep-09 17:01N 33°40' W 118°14'1 1.3
2017-Sep-09 16:30N 33°39' W 118°13'2 4.1
2017-Sep-09 16:00N 33°39' W 118°11'4 7.2
2017-Sep-09 15:31N 33°39' W 118°06'1 1.2
2017-Sep-09 15:00N 33°39' W 118°07'  

Dump ship's entire track history